Time;durP1;ratioP1;P1;durP2;ratioP2;P2;SDS_P1;SDS_P2;PMS_P1;PMS_P2;Temp;Humidity;BMP_temperature;BMP_pressure;BME280_temperature;BME280_humidity;BME280_pressure;Samples;Min_cycle;Max_cycle;Signal;HPM_P1;HPM_P2
2023/01/23 00:01:31;;;;;;;27.98;16.48;;;2.00;99.90;;;-144.05;78.23;125687.94;5034957;28;20133;-82
2023/01/23 00:03:57;;;;;;;26.38;15.48;;;2.00;99.90;;;-144.05;77.98;125687.94;5035206;28;20086;-82
2023/01/23 00:06:25;;;;;;;33.75;17.42;;;2.00;99.90;;;-144.05;77.96;125687.94;5034945;28;20029;-82
2023/01/23 00:08:52;;;;;;;31.77;18.33;;;2.00;99.90;;;-144.05;77.98;125687.94;5034916;28;20154;-84
2023/01/23 00:11:23;;;;;;;28.08;16.25;;;2.00;99.90;;;-144.05;77.86;125687.94;5035205;28;20061;-83
2023/01/23 00:13:51;;;;;;;30.50;16.65;;;2.00;99.90;;;-144.05;77.73;125687.94;5035242;28;20059;-83
2023/01/23 00:16:23;;;;;;;32.80;17.30;;;2.00;99.90;;;-144.05;78.50;125687.94;5038820;28;20029;-81
2023/01/23 00:18:51;;;;;;;30.92;16.90;;;2.00;99.90;;;-144.05;78.09;125687.94;5041169;28;20500;-83
2023/01/23 00:21:24;;;;;;;32.28;17.45;;;2.00;99.90;;;-144.05;77.78;125687.94;5037102;28;20139;-81
2023/01/23 00:24:06;;;;;;;29.77;17.17;;;2.10;99.90;;;-144.05;78.15;125687.94;5037195;28;20036;-79
2023/01/23 00:26:32;;;;;;;30.23;17.67;;;2.00;99.90;;;-144.05;77.69;125687.94;5038627;28;20037;-83
2023/01/23 00:28:58;;;;;;;31.35;18.55;;;2.00;99.90;;;-144.05;77.56;125687.94;5044483;28;20059;-82
2023/01/23 00:31:36;;;;;;;29.30;17.35;;;2.00;99.90;;;-144.05;77.18;125687.94;5065243;28;20025;-85
2023/01/23 00:34:12;;;;;;;25.73;15.40;;;2.00;99.90;;;-144.05;77.14;125687.94;5044841;28;20033;-82
2023/01/23 00:36:43;;;;;;;29.55;17.08;;;2.00;99.90;;;-144.05;77.03;125687.94;5044612;28;20244;-86
2023/01/23 00:39:21;;;;;;;30.55;17.00;;;2.00;99.90;;;-144.05;77.17;125687.94;5044631;28;20044;-86
2023/01/23 00:41:49;;;;;;;30.42;17.35;;;2.00;99.90;;;-144.05;76.92;125687.94;5044992;28;20106;-82
2023/01/23 00:44:16;;;;;;;29.73;16.88;;;2.00;99.90;;;-144.05;77.39;125687.94;5061022;28;20633;-86
2023/01/23 00:46:42;;;;;;;28.20;16.27;;;2.00;99.90;;;-144.05;77.13;125687.94;5044394;28;20029;-84
2023/01/23 00:49:08;;;;;;;27.13;15.55;;;2.00;99.90;;;-144.05;77.21;125687.94;5044192;28;20071;-82
2023/01/23 00:51:34;;;;;;;24.98;15.18;;;2.00;99.90;;;-144.05;77.13;125687.94;5044380;28;20048;-85
2023/01/23 00:54:01;;;;;;;27.00;15.38;;;2.00;99.90;;;-144.05;77.15;125687.94;5045191;28;20469;-87
2023/01/23 00:56:27;;;;;;;26.38;15.73;;;2.10;99.90;;;-144.05;77.19;125687.94;5044478;28;20060;-86
2023/01/23 00:58:53;;;;;;;28.63;15.38;;;2.00;99.90;;;-144.05;77.05;125687.94;5043995;28;20036;-88
2023/01/23 01:01:21;;;;;;;29.15;16.08;;;2.00;99.90;;;-144.05;77.74;125687.94;5042496;28;20024;-87
2023/01/23 01:03:50;;;;;;;30.08;15.70;;;2.00;99.90;;;-144.05;78.16;125687.94;5060231;28;20465;-86
2023/01/23 01:06:16;;;;;;;27.88;15.05;;;2.00;99.90;;;-144.05;77.91;125687.94;5060248;28;20067;-82
2023/01/23 01:08:42;;;;;;;29.67;15.85;;;2.00;99.90;;;-144.05;78.03;125687.94;5043284;28;20025;-83
2023/01/23 01:11:08;;;;;;;28.65;16.23;;;2.00;99.90;;;-144.05;78.01;125687.94;5042686;28;20116;-85
2023/01/23 01:13:35;;;;;;;28.08;15.57;;;1.90;99.90;;;-144.05;77.99;125687.94;5042633;28;20050;-83
2023/01/23 01:16:01;;;;;;;27.20;14.27;;;2.00;99.90;;;-144.05;77.83;125687.94;5042925;28;20035;-85
2023/01/23 01:18:27;;;;;;;27.00;15.20;;;2.00;99.90;;;-144.05;77.66;125687.94;5042891;28;20029;-85
2023/01/23 01:20:54;;;;;;;26.40;14.80;;;1.90;99.90;;;-144.05;77.48;125687.94;5045262;28;20025;-86
2023/01/23 01:23:21;;;;;;;27.65;15.88;;;1.90;99.90;;;-144.05;78.15;125687.94;5044527;28;20025;-84
2023/01/23 01:25:47;;;;;;;28.85;15.43;;;2.00;99.90;;;-144.05;77.60;125687.94;5044247;28;20025;-83
2023/01/23 01:28:13;;;;;;;24.58;14.02;;;1.90;99.90;;;-144.05;77.66;125687.94;5044774;28;20473;-84
2023/01/23 01:30:40;;;;;;;27.50;15.88;;;1.90;99.90;;;-144.05;77.83;125687.94;5043777;28;20489;-85
2023/01/23 01:33:06;;;;;;;28.50;16.15;;;1.90;99.90;;;-144.05;78.62;125687.94;5035465;28;20065;-85
2023/01/23 01:35:32;;;;;;;26.48;15.32;;;1.90;99.90;;;-144.05;78.05;125687.94;5034569;28;20071;-84
2023/01/23 01:37:59;;;;;;;24.10;14.95;;;1.90;99.90;;;-144.05;77.59;125687.94;5033363;28;20049;-84
2023/01/23 01:40:33;;;;;;;28.00;15.02;;;1.90;99.90;;;-144.05;77.24;125687.94;5051736;28;20074;-81
2023/01/23 01:43:16;;;;;;;18.77;10.63;;;1.90;99.90;;;-144.05;77.21;125687.94;5034070;28;20044;-85
2023/01/23 01:46:05;;;;;;;28.00;15.68;;;1.90;99.90;;;-144.05;76.99;125687.94;5035555;28;20024;-83
2023/01/23 01:49:03;;;;;;;26.65;14.40;;;2.00;99.90;;;-144.05;76.80;125687.94;5038593;28;20402;-84
2023/01/23 01:51:50;;;;;;;29.27;15.45;;;2.00;99.90;;;-144.05;77.19;125687.94;5050777;28;20055;-80
2023/01/23 01:54:45;;;;;;;24.55;14.55;;;1.90;99.90;;;-144.05;76.99;125687.94;5065092;28;20025;-83
2023/01/23 01:57:33;;;;;;;28.58;15.35;;;1.90;99.90;;;-144.05;77.28;125687.94;5039631;28;20021;-86
2023/01/23 02:00:15;;;;;;;27.98;14.80;;;1.90;99.90;;;-144.05;77.56;125687.94;5039506;28;20036;-82
2023/01/23 02:02:54;;;;;;;26.38;15.68;;;1.90;99.90;;;-144.05;77.44;125687.94;5055236;28;20017;-83
2023/01/23 02:05:28;;;;;;;26.02;14.82;;;1.90;99.90;;;-144.05;77.53;125687.94;5037330;28;20048;-83
2023/01/23 02:08:16;;;;;;;32.05;16.30;;;1.90;99.90;;;-144.05;77.16;125687.94;5037158;28;20045;-83
2023/01/23 02:10:43;;;;;;;28.08;14.90;;;1.90;99.90;;;-144.05;77.37;125687.94;5036926;28;20033;-82
2023/01/23 02:13:32;;;;;;;29.20;16.23;;;1.90;99.90;;;-144.05;77.59;125687.94;5054855;28;20029;-81
2023/01/23 02:16:04;;;;;;;27.55;16.00;;;1.90;99.90;;;-144.05;77.73;125687.94;5037278;28;20051;-81
2023/01/23 02:18:34;;;;;;;28.60;16.48;;;1.90;99.90;;;-144.05;77.50;125687.94;5036793;28;20029;-81
2023/01/23 02:21:07;;;;;;;27.20;15.63;;;1.90;99.90;;;-144.05;77.59;125687.94;5036857;28;20495;-83
2023/01/23 02:23:50;;;;;;;30.00;16.77;;;1.90;99.90;;;-144.05;77.94;125687.94;5055014;28;20104;-82
2023/01/23 02:26:40;;;;;;;32.53;16.35;;;1.90;99.90;;;-144.05;77.93;125687.94;5037180;28;20116;-82
2023/01/23 02:29:07;;;;;;;27.55;15.07;;;1.90;99.90;;;-144.05;77.66;125687.94;5037600;28;20366;-85
2023/01/23 02:31:36;;;;;;;29.00;15.25;;;1.90;99.90;;;-144.05;77.37;125687.94;5044898;28;20171;-85
2023/01/23 02:34:03;;;;;;;28.58;15.25;;;1.90;99.90;;;-144.05;77.54;125687.94;5062577;28;20024;-86
2023/01/23 02:36:34;;;;;;;30.98;16.80;;;2.00;99.90;;;-144.05;77.93;125687.94;5042272;28;20044;-83
2023/01/23 02:39:07;;;;;;;33.08;17.40;;;1.90;99.90;;;-144.05;77.84;125687.94;5036671;28;20036;-84
2023/01/23 02:41:42;;;;;;;28.83;17.13;;;1.90;99.90;;;-144.05;78.11;125687.94;5036690;28;20036;-81
2023/01/23 02:44:25;;;;;;;30.08;15.93;;;1.90;99.90;;;-144.05;77.99;125687.94;5054835;28;20037;-83
2023/01/23 02:46:58;;;;;;;30.98;17.05;;;1.90;99.90;;;-144.05;77.97;125687.94;5036659;28;20029;-81
2023/01/23 02:49:24;;;;;;;32.88;16.60;;;1.90;99.90;;;-144.05;78.32;125687.94;5036937;28;20040;-82
2023/01/23 02:51:53;;;;;;;31.00;17.63;;;1.90;99.90;;;-144.05;78.10;125687.94;5036197;28;20029;-82
2023/01/23 02:54:21;;;;;;;30.85;16.48;;;1.90;99.90;;;-144.05;78.71;125687.94;5054448;28;20044;-83
2023/01/23 02:56:47;;;;;;;31.38;17.13;;;2.00;99.90;;;-144.05;78.40;125687.94;5036042;28;20037;-81
2023/01/23 03:01:59;;;;;;;30.38;16.10;;;1.90;99.90;;;-144.05;78.58;125687.94;5054322;28;20145;-81
2023/01/23 03:04:25;;;;;;;30.58;16.58;;;2.00;99.90;;;-144.05;78.82;125687.94;5036341;28;20119;-83
2023/01/23 03:06:51;;;;;;;33.58;17.42;;;2.00;99.90;;;-144.05;79.08;125687.94;5035985;28;20033;-83
2023/01/23 03:09:18;;;;;;;32.40;16.75;;;1.90;99.90;;;-144.05;78.73;125687.94;5036045;28;20057;-82
2023/01/23 03:11:45;;;;;;;30.67;16.55;;;1.90;99.90;;;-144.05;78.69;125687.94;5053683;28;20048;-82
2023/01/23 03:14:20;;;;;;;33.42;17.75;;;1.90;99.90;;;-144.05;78.78;125687.94;5053989;28;20096;-82
2023/01/23 03:16:50;;;;;;;36.88;17.63;;;2.00;99.90;;;-144.05;79.25;125687.94;5054080;28;20411;-82
2023/01/23 03:19:20;;;;;;;30.65;17.65;;;2.00;99.90;;;-144.05;79.23;125687.94;5035736;28;20056;-81
2023/01/23 03:21:46;;;;;;;34.05;18.50;;;2.00;99.90;;;-144.05;78.90;125687.94;5035962;28;20025;-84
2023/01/23 03:24:14;;;;;;;35.70;18.90;;;2.10;99.90;;;-144.05;79.65;125687.94;5053784;28;20036;-80
2023/01/23 03:26:45;;;;;;;33.17;17.80;;;2.10;99.90;;;-144.05;79.14;125687.94;5035956;28;20046;-81
2023/01/23 03:32:10;;;;;;;33.83;17.55;;;2.00;99.90;;;-144.05;79.22;125687.94;5053645;28;20584;-81
2023/01/23 03:34:36;;;;;;;31.10;16.80;;;2.00;99.90;;;-144.05;78.87;125687.94;5035658;28;20044;-82
2023/01/23 03:37:02;;;;;;;37.08;18.08;;;2.00;99.90;;;-144.05;79.55;125687.94;5035814;28;20041;-82
2023/01/23 03:42:13;;;;;;;37.75;18.98;;;2.00;99.90;;;-144.05;79.05;125687.94;5053608;28;20060;-83
2023/01/23 03:44:39;;;;;;;37.70;18.90;;;2.00;99.90;;;-144.05;79.39;125687.94;5035216;28;20039;-83
2023/01/23 03:47:06;;;;;;;33.90;18.00;;;2.00;99.90;;;-144.05;79.54;125687.94;5053771;28;20389;-83
2023/01/23 03:49:32;;;;;;;36.50;19.35;;;2.00;99.90;;;-144.05;79.20;125687.94;5035564;28;20481;-81
2023/01/23 03:51:58;;;;;;;34.35;16.85;;;2.00;99.90;;;-144.05;79.76;125687.94;5047010;28;20056;-77
2023/01/23 03:54:25;;;;;;;36.50;18.45;;;2.00;99.90;;;-144.05;80.18;125687.94;5058993;28;20037;-85
2023/01/23 03:56:51;;;;;;;35.15;18.92;;;2.00;99.90;;;-144.05;79.91;125687.94;5051357;28;20048;-78
2023/01/23 03:59:18;;;;;;;34.72;18.52;;;2.00;99.90;;;-144.05;79.32;125687.94;5060584;28;20024;-81
2023/01/23 04:01:44;;;;;;;34.72;17.85;;;2.00;99.90;;;-144.05;79.10;125687.94;5060361;28;20060;-78
2023/01/23 04:04:10;;;;;;;32.58;17.30;;;2.00;99.90;;;-144.05;78.89;125687.94;5060429;28;20025;-79
2023/01/23 04:06:36;;;;;;;30.42;16.40;;;2.00;99.90;;;-144.05;79.06;125687.94;5038776;28;20041;-82
2023/01/23 04:09:02;;;;;;;34.45;18.00;;;1.90;99.90;;;-144.05;78.97;125687.94;5034082;28;20495;-81
2023/01/23 04:11:28;;;;;;;32.88;17.33;;;2.00;99.90;;;-144.05;79.07;125687.94;5052604;28;20090;-82
2023/01/23 04:13:54;;;;;;;30.00;16.48;;;2.00;99.90;;;-144.05;78.88;125687.94;5034538;28;20032;-82
2023/01/23 04:16:23;;;;;;;34.15;17.55;;;2.00;99.90;;;-144.05;79.02;125687.94;5034349;28;20498;-81
2023/01/23 04:18:53;;;;;;;32.15;16.80;;;2.10;99.90;;;-144.05;79.18;125687.94;5052336;28;20037;-82
2023/01/23 04:21:19;;;;;;;33.95;17.67;;;2.00;99.90;;;-144.05;78.74;125687.94;5052370;28;20037;-82
2023/01/23 04:23:45;;;;;;;35.00;18.35;;;2.00;99.90;;;-144.05;79.07;125687.94;5034378;28;20235;-82
2023/01/23 04:26:12;;;;;;;33.45;17.42;;;2.10;99.90;;;-144.05;78.93;125687.94;5034500;28;20552;-84
2023/01/23 04:28:39;;;;;;;33.95;17.48;;;2.00;99.90;;;-144.05;78.87;125687.94;5034354;28;20063;-83
2023/01/23 04:31:05;;;;;;;33.95;18.02;;;2.00;99.90;;;-144.05;78.82;125687.94;5034150;28;20037;-85
2023/01/23 04:33:31;;;;;;;33.70;17.67;;;2.00;99.90;;;-144.05;79.32;125687.94;5051151;28;20052;-82
2023/01/23 04:36:04;;;;;;;31.23;16.85;;;2.10;99.90;;;-144.05;78.99;125687.94;5034217;28;20131;-85
2023/01/23 04:38:32;;;;;;;32.20;18.10;;;2.00;99.90;;;-144.05;78.95;125687.94;5034003;28;20036;-81
2023/01/23 04:40:58;;;;;;;35.25;18.00;;;2.00;99.90;;;-144.05;79.12;125687.94;5034114;28;20123;-83
2023/01/23 04:43:24;;;;;;;31.48;17.42;;;2.00;99.90;;;-144.05;78.31;125687.94;5051976;28;20036;-81
2023/01/23 04:45:53;;;;;;;34.70;18.33;;;2.00;99.90;;;-144.05;78.25;125687.94;5033278;28;20025;-84
2023/01/23 04:48:19;;;;;;;32.42;18.30;;;2.00;99.90;;;-144.05;78.46;125687.94;5033898;28;20131;-85
2023/01/23 04:50:45;;;;;;;33.00;17.65;;;2.00;99.90;;;-144.05;78.28;125687.94;5034121;28;20120;-85
2023/01/23 04:53:12;;;;;;;34.10;18.50;;;2.10;99.90;;;-144.05;78.45;125687.94;5052521;28;20544;-86
2023/01/23 04:55:38;;;;;;;36.25;17.95;;;2.00;99.90;;;-144.05;78.25;125687.94;5034082;28;20645;-82
2023/01/23 04:58:05;;;;;;;33.42;17.20;;;2.00;99.90;;;-144.05;77.93;125687.94;5033936;28;20033;-84
2023/01/23 05:00:31;;;;;;;31.63;17.42;;;2.10;99.90;;;-144.05;78.10;125687.94;5033922;28;20029;-85
2023/01/23 05:02:58;;;;;;;34.45;18.60;;;2.10;99.90;;;-144.05;78.02;125687.94;5034217;28;20060;-84
2023/01/23 05:05:25;;;;;;;30.55;16.88;;;2.00;99.90;;;-144.05;77.81;125687.94;5051957;28;20029;-87
2023/01/23 05:07:51;;;;;;;31.45;16.35;;;2.00;99.90;;;-144.05;78.21;125687.94;5051816;28;20044;-86
2023/01/23 05:10:18;;;;;;;32.95;17.23;;;2.10;99.90;;;-144.05;78.25;125687.94;5034672;28;20028;-87
2023/01/23 05:12:46;;;;;;;33.65;17.67;;;2.00;99.90;;;-144.05;77.95;125687.94;5036050;28;20043;-85
2023/01/23 05:15:12;;;;;;;32.00;16.88;;;2.00;99.90;;;-144.05;78.22;125687.94;5035624;28;20120;-87
2023/01/23 05:17:38;;;;;;;31.02;16.05;;;2.00;99.90;;;-144.05;77.95;125687.94;5034124;28;20104;-84
2023/01/23 05:20:06;;;;;;;30.98;17.52;;;2.00;99.90;;;-144.05;77.95;125687.94;5033988;28;20033;-82
2023/01/23 05:22:32;;;;;;;32.80;17.45;;;2.00;99.90;;;-144.05;77.69;125687.94;5039570;28;20033;-84
2023/01/23 05:24:58;;;;;;;30.77;16.65;;;2.00;99.90;;;-144.05;77.17;125687.94;5035621;28;20041;-84
2023/01/23 05:27:24;;;;;;;31.38;17.38;;;2.00;99.90;;;-144.05;77.16;125687.94;5034588;28;20033;-82
2023/01/23 05:29:50;;;;;;;28.95;16.10;;;2.00;99.90;;;-144.05;77.27;125687.94;5052077;28;20036;-83
2023/01/23 05:32:16;;;;;;;29.63;16.38;;;2.00;99.90;;;-144.05;77.60;125687.94;5052594;28;20033;-84
2023/01/23 05:34:42;;;;;;;29.02;15.93;;;2.00;99.90;;;-144.05;77.44;125687.94;5034338;28;20043;-82
2023/01/23 05:37:08;;;;;;;32.25;16.58;;;2.10;99.90;;;-144.05;77.93;125687.94;5051847;28;20037;-84
2023/01/23 05:39:33;;;;;;;31.10;15.88;;;2.00;99.90;;;-144.05;78.02;125687.94;5033995;28;20036;-82
2023/01/23 05:41:59;;;;;;;31.17;15.68;;;2.00;99.90;;;-144.05;77.83;125687.94;5034242;28;20029;-84
2023/01/23 05:44:27;;;;;;;30.42;16.42;;;2.00;99.90;;;-144.05;77.64;125687.94;5034039;28;20060;-84
2023/01/23 05:46:53;;;;;;;31.52;16.63;;;2.10;99.90;;;-144.05;77.46;125687.94;5033078;28;20467;-83
2023/01/23 05:49:19;;;;;;;32.03;16.98;;;2.00;99.90;;;-144.05;77.77;125687.94;5035660;28;20040;-83
2023/01/23 05:51:45;;;;;;;33.95;16.85;;;2.00;99.90;;;-144.05;77.68;125687.94;5052501;28;20035;-84
2023/01/23 05:54:10;;;;;;;31.40;16.35;;;2.00;99.90;;;-144.05;77.73;125687.94;5073591;28;20021;-79
2023/01/23 05:56:36;;;;;;;39.47;20.92;;;2.00;99.90;;;-144.05;77.67;125687.94;5041924;28;20159;-83
2023/01/23 05:59:04;;;;;;;31.70;16.40;;;2.00;99.90;;;-144.05;77.39;125687.94;5034147;28;20063;-83
2023/01/23 06:01:30;;;;;;;32.60;17.48;;;2.00;99.90;;;-144.05;77.49;125687.94;5034243;28;20052;-81
2023/01/23 06:03:58;;;;;;;36.10;18.52;;;2.00;99.90;;;-144.05;77.64;125687.94;5034367;28;20029;-83
2023/01/23 06:06:24;;;;;;;35.33;17.90;;;2.00;99.90;;;-144.05;77.95;125687.94;5035165;28;20032;-84
2023/01/23 06:08:50;;;;;;;33.42;18.58;;;2.10;99.90;;;-144.05;77.61;125687.94;5034027;28;20392;-83
2023/01/23 06:11:16;;;;;;;53.45;25.40;;;2.10;99.90;;;-144.05;77.54;125687.94;5033675;28;20029;-81
2023/01/23 06:13:42;;;;;;;37.92;20.52;;;2.10;99.90;;;-144.05;77.09;125687.94;5034132;28;20112;-84
2023/01/23 06:16:08;;;;;;;59.78;27.95;;;2.10;99.90;;;-144.05;77.09;125687.94;5033900;28;20032;-83
2023/01/23 06:18:34;;;;;;;72.03;32.85;;;2.10;99.90;;;-144.05;77.06;125687.94;5051346;28;20564;-82
2023/01/23 06:21:01;;;;;;;76.25;31.35;;;2.10;99.90;;;-144.05;77.39;125687.94;5033747;28;20029;-82
2023/01/23 06:23:27;;;;;;;37.17;18.70;;;2.10;99.90;;;-144.05;77.47;125687.94;5033942;28;20025;-84
2023/01/23 06:25:53;;;;;;;38.85;21.17;;;2.10;99.90;;;-144.05;77.12;125687.94;5051575;28;20440;-83
2023/01/23 06:28:19;;;;;;;51.47;24.40;;;2.10;99.90;;;-144.05;77.24;125687.94;5051504;28;20043;-80
2023/01/23 06:30:45;;;;;;;63.03;29.05;;;2.10;99.90;;;-144.05;77.23;125687.94;5051709;28;20405;-78
2023/01/23 06:33:11;;;;;;;40.25;21.48;;;2.10;99.90;;;-144.05;77.39;125687.94;5055018;28;20111;-84
2023/01/23 06:35:36;;;;;;;53.17;25.40;;;2.10;99.90;;;-144.05;77.24;125687.94;5037090;28;20036;-82
2023/01/23 06:38:02;;;;;;;59.60;29.67;;;2.10;99.90;;;-144.05;77.41;125687.94;5036331;28;20033;-82
2023/01/23 06:40:28;;;;;;;45.22;22.80;;;2.10;99.90;;;-144.05;77.20;125687.94;5036768;28;20032;-82
2023/01/23 06:42:55;;;;;;;48.08;23.40;;;2.10;99.90;;;-144.05;76.76;125687.94;5037140;28;20025;-83
2023/01/23 06:45:21;;;;;;;45.33;22.23;;;2.20;99.90;;;-144.05;77.10;125687.94;5054708;28;20047;-83
2023/01/23 06:47:47;;;;;;;32.17;17.10;;;2.20;99.90;;;-144.05;76.94;125687.94;5053627;28;20439;-84
2023/01/23 06:50:13;;;;;;;49.20;23.33;;;2.20;99.90;;;-144.05;77.19;125687.94;5054685;28;20040;-83
2023/01/23 06:52:40;;;;;;;37.80;18.73;;;2.20;99.90;;;-144.05;77.31;125687.94;5036848;28;20500;-82
2023/01/23 06:55:06;;;;;;;40.65;19.30;;;2.20;99.90;;;-144.05;77.43;125687.94;5036938;28;20127;-82
2023/01/23 06:57:33;;;;;;;35.55;17.52;;;2.20;99.90;;;-144.05;77.46;125687.94;5036500;28;20037;-81
2023/01/23 06:59:59;;;;;;;35.53;18.13;;;2.20;99.90;;;-144.05;77.50;125687.94;5036247;28;20028;-82
2023/01/23 07:02:25;;;;;;;36.58;16.85;;;2.20;99.90;;;-144.05;77.69;125687.94;5036485;28;20045;-81
2023/01/23 07:04:51;;;;;;;33.47;17.23;;;2.20;99.90;;;-144.05;77.61;125687.94;5036611;28;20551;-82
2023/01/23 07:07:18;;;;;;;40.28;19.33;;;2.20;99.90;;;-144.05;77.07;125687.94;5054357;28;20036;-82
2023/01/23 07:09:44;;;;;;;37.20;18.05;;;2.20;99.90;;;-144.05;77.35;125687.94;5036171;28;20504;-82
2023/01/23 07:12:10;;;;;;;36.28;18.42;;;2.20;99.90;;;-144.05;77.17;125687.94;5036338;28;20033;-83
2023/01/23 07:14:36;;;;;;;33.58;16.20;;;2.20;99.90;;;-144.05;77.19;125687.94;5036440;28;20047;-82
2023/01/23 07:17:01;;;;;;;35.40;17.98;;;2.20;99.90;;;-144.05;77.23;125687.94;5036205;28;20547;-82
2023/01/23 07:19:27;;;;;;;37.58;17.83;;;2.20;99.90;;;-144.05;77.26;125687.94;5036462;28;20405;-82
2023/01/23 07:21:53;;;;;;;33.67;17.42;;;2.30;99.90;;;-144.05;77.06;125687.94;5036292;28;20053;-83
2023/01/23 07:24:19;;;;;;;38.20;16.67;;;2.30;99.90;;;-144.05;77.59;125687.94;5036444;28;20029;-83
2023/01/23 07:26:45;;;;;;;35.30;16.83;;;2.30;99.90;;;-144.05;77.44;125687.94;5036703;28;20477;-81
2023/01/23 07:29:11;;;;;;;33.97;17.33;;;2.30;99.90;;;-144.05;77.13;125687.94;5036197;28;20063;-84
2023/01/23 07:31:37;;;;;;;40.72;19.25;;;2.20;99.90;;;-144.05;77.11;125687.94;5035914;28;20464;-82
2023/01/23 07:34:02;;;;;;;38.88;18.42;;;2.20;99.90;;;-144.05;77.15;125687.94;5055455;28;20068;-84
2023/01/23 07:36:29;;;;;;;34.53;17.80;;;2.30;99.90;;;-144.05;77.20;125687.94;5054069;28;20224;-84
2023/01/23 07:38:55;;;;;;;35.22;17.95;;;2.20;99.90;;;-144.05;77.46;125687.94;5036140;28;20284;-85
2023/01/23 07:41:21;;;;;;;33.90;17.30;;;2.30;99.90;;;-144.05;77.21;125687.94;5036352;28;20025;-84
2023/01/23 07:43:47;;;;;;;34.85;16.88;;;2.30;99.90;;;-144.05;77.06;125687.94;5035463;28;20029;-82
2023/01/23 07:46:13;;;;;;;36.08;17.75;;;2.30;99.90;;;-144.05;77.07;125687.94;5035409;28;20075;-81
2023/01/23 07:48:39;;;;;;;34.78;17.67;;;2.30;99.90;;;-144.05;76.97;125687.94;5035669;28;20029;-81
2023/01/23 07:51:06;;;;;;;34.33;16.27;;;2.30;99.90;;;-144.05;76.97;125687.94;5054369;28;20190;-84
2023/01/23 07:53:32;;;;;;;30.50;15.63;;;2.30;99.90;;;-144.05;77.06;125687.94;5049357;28;20028;-82
2023/01/23 07:55:58;;;;;;;28.77;16.38;;;2.30;99.90;;;-144.05;76.81;125687.94;5050698;28;20036;-81
2023/01/23 07:58:24;;;;;;;34.75;17.63;;;2.30;99.90;;;-144.05;76.73;125687.94;5035707;28;20029;-82
2023/01/23 08:00:50;;;;;;;31.00;15.52;;;2.30;99.90;;;-144.05;76.41;125687.94;5053544;28;20171;-81
2023/01/23 08:03:16;;;;;;;31.63;15.80;;;2.30;99.90;;;-144.05;76.61;125687.94;5053655;28;20481;-82
2023/01/23 08:05:48;;;;;;;39.53;19.50;;;2.40;99.90;;;-144.05;76.14;125687.94;5035981;28;20071;-83
2023/01/23 08:08:14;;;;;;;39.90;19.95;;;2.30;99.90;;;-144.05;76.14;125687.94;5035456;28;20033;-83
2023/01/23 08:10:41;;;;;;;30.63;15.55;;;2.40;99.90;;;-144.05;75.88;125687.94;5053379;28;20036;-82
2023/01/23 08:13:07;;;;;;;29.63;16.33;;;2.40;99.90;;;-144.05;75.97;125687.94;5035605;28;20048;-83
2023/01/23 08:15:33;;;;;;;31.65;15.27;;;2.40;99.90;;;-144.05;76.12;125687.94;5053640;28;20033;-83
2023/01/23 08:17:59;;;;;;;29.05;15.07;;;2.40;99.90;;;-144.05;75.48;125687.94;5035025;28;20094;-81
2023/01/23 08:20:24;;;;;;;26.92;14.27;;;2.40;99.90;;;-144.05;75.68;125687.94;5035746;28;20025;-82
2023/01/23 08:22:50;;;;;;;30.33;16.27;;;2.50;99.90;;;-144.05;76.05;125687.94;5053238;28;20021;-82
2023/01/23 08:25:16;;;;;;;29.70;14.75;;;2.40;99.90;;;-144.05;76.03;125687.94;5035643;28;20124;-82
2023/01/23 08:27:42;;;;;;;29.02;15.02;;;2.40;99.90;;;-144.05;76.17;125687.94;5035162;28;20412;-84
2023/01/23 08:30:10;;;;;;;27.38;14.75;;;2.40;99.90;;;-144.05;76.07;125687.94;5053232;28;20038;-87
2023/01/23 08:32:36;;;;;;;24.58;13.52;;;2.40;99.90;;;-144.05;75.43;125687.94;5036119;28;20036;-83
2023/01/23 08:35:03;;;;;;;24.90;12.93;;;2.40;99.90;;;-144.05;75.57;125687.94;5053616;28;20127;-84
2023/01/23 08:37:29;;;;;;;27.90;14.10;;;2.40;99.90;;;-144.05;75.18;125687.94;5053185;28;20051;-82
2023/01/23 08:39:55;;;;;;;26.02;14.57;;;2.40;99.90;;;-144.05;75.08;125687.94;5034991;28;20123;-84
2023/01/23 08:42:21;;;;;;;29.13;13.57;;;2.50;99.90;;;-144.05;75.26;125687.94;5035129;28;20051;-81
2023/01/23 08:44:47;;;;;;;35.67;17.02;;;2.50;99.90;;;-144.05;74.73;125687.94;5035113;28;20029;-82
2023/01/23 08:47:12;;;;;;;39.05;18.35;;;2.50;99.90;;;-144.05;75.38;125687.94;5052152;28;20051;-82
2023/01/23 08:49:38;;;;;;;26.55;14.45;;;2.50;99.90;;;-144.05;76.16;125687.94;5053296;28;20060;-83
2023/01/23 08:52:05;;;;;;;27.95;13.55;;;2.50;99.90;;;-144.05;74.82;125687.94;5035570;28;20056;-82
2023/01/23 08:54:31;;;;;;;33.67;16.48;;;2.50;99.90;;;-144.05;74.48;125687.94;5052986;28;20101;-84
2023/01/23 08:56:57;;;;;;;22.38;13.48;;;2.60;99.90;;;-144.05;74.91;125687.94;5053200;28;20032;-82
2023/01/23 08:59:23;;;;;;;25.98;13.52;;;2.50;99.90;;;-144.05;74.33;125687.94;5034942;28;20397;-81
2023/01/23 09:01:49;;;;;;;24.27;14.00;;;2.60;99.90;;;-144.05;74.59;125687.94;5052949;28;20078;-82
2023/01/23 09:04:16;;;;;;;26.15;12.73;;;2.60;99.90;;;-144.05;74.18;125687.94;5034961;28;20025;-84
2023/01/23 09:06:42;;;;;;;23.13;12.43;;;2.60;99.90;;;-144.05;74.41;125687.94;5035246;28;20086;-83
2023/01/23 09:09:08;;;;;;;24.98;13.32;;;2.60;99.90;;;-144.05;74.12;125687.94;5034922;28;20504;-82
2023/01/23 09:11:34;;;;;;;20.50;12.00;;;2.60;99.90;;;-144.05;74.24;125687.94;5034837;28;20028;-81
2023/01/23 09:13:59;;;;;;;23.60;12.25;;;2.60;99.90;;;-144.05;74.01;125687.94;5053241;28;20068;-81
2023/01/23 09:16:25;;;;;;;22.05;12.55;;;2.60;99.90;;;-144.05;73.43;125687.94;5035113;28;20059;-82
2023/01/23 09:18:55;;;;;;;26.80;13.88;;;2.60;99.90;;;-144.05;73.30;125687.94;5035230;28;20417;-82
2023/01/23 09:21:21;;;;;;;22.23;11.77;;;2.60;99.90;;;-144.05;73.40;125687.94;5035478;28;20120;-82
2023/01/23 09:23:47;;;;;;;22.42;12.23;;;2.70;99.90;;;-144.05;73.73;125687.94;5035284;28;20078;-80
2023/01/23 09:26:14;;;;;;;26.90;13.48;;;2.70;99.90;;;-144.05;73.20;125687.94;5035430;28;20029;-83
2023/01/23 09:28:41;;;;;;;29.25;15.82;;;2.70;99.90;;;-144.05;73.10;125687.94;5053045;28;20143;-83
2023/01/23 09:31:12;;;;;;;26.80;13.73;;;2.70;99.90;;;-144.05;72.76;125687.94;5034677;28;20029;-84
2023/01/23 09:33:39;;;;;;;21.83;12.48;;;2.70;99.90;;;-144.05;71.94;125687.94;5034963;28;20116;-84
2023/01/23 09:36:07;;;;;;;22.50;11.30;;;2.80;99.90;;;-144.05;72.30;125687.94;5052743;28;20091;-83
2023/01/23 09:38:33;;;;;;;29.10;14.27;;;2.90;99.90;;;-144.05;72.06;125687.94;5034827;28;20029;-83
2023/01/23 09:41:10;;;;;;;23.38;13.18;;;2.90;99.90;;;-144.05;71.35;125687.94;5052897;28;20052;-82
2023/01/23 09:44:14;;;;;;;31.13;15.90;;;3.00;99.90;;;-144.05;71.27;125687.94;5035402;28;20049;-81
2023/01/23 09:46:54;;;;;;;21.60;11.82;;;3.10;99.90;;;-144.05;70.80;125687.94;5034112;28;20078;-81
2023/01/23 09:49:44;;;;;;;20.50;11.98;;;3.10;99.90;;;-144.05;70.52;125687.94;5034937;28;20028;-82
2023/01/23 09:52:24;;;;;;;21.02;11.10;;;3.10;99.90;;;-144.05;70.21;125687.94;5049026;28;20044;-83
2023/01/23 09:55:10;;;;;;;18.83;11.40;;;3.10;99.90;;;-144.05;70.37;125687.94;5047155;28;20052;-85
2023/01/23 09:57:54;;;;;;;23.58;11.45;;;3.20;99.90;;;-144.05;69.72;125687.94;5035968;28;20553;-83
2023/01/23 10:00:29;;;;;;;25.15;12.90;;;3.30;99.90;;;-144.05;69.55;125687.94;5039847;28;20162;-82
2023/01/23 10:02:58;;;;;;;19.48;10.88;;;3.40;99.90;;;-144.05;69.06;125687.94;5035423;28;20021;-82
2023/01/23 10:06:06;;;;;;;20.55;11.13;;;3.50;99.90;;;-144.05;69.34;125687.94;5035070;28;20029;-80
2023/01/23 10:09:41;;;;;;;19.20;10.23;;;3.50;99.90;;;-144.05;68.38;125687.94;5039321;28;20021;-83